sensor_id;sensor_type;location;lat;lon;timestamp;pressure;altitude;pressure_sealevel;temperature;humidity
72959;BME280;60008;50.826;6.896;2023-01-25T00:04:16;103046.56;;;1.01;100.00
72959;BME280;60008;50.826;6.896;2023-01-25T00:07:02;103046.81;;;1.23;100.00
72959;BME280;60008;50.826;6.896;2023-01-25T00:09:47;103045.78;;;1.29;100.00
72959;BME280;60008;50.826;6.896;2023-01-25T00:12:32;103040.22;;;1.41;100.00
72959;BME280;60008;50.826;6.896;2023-01-25T00:15:17;103038.47;;;1.41;100.00
72959;BME280;60008;50.826;6.896;2023-01-25T00:18:01;103037.84;;;1.32;100.00
72959;BME280;60008;50.826;6.896;2023-01-25T00:20:46;103036.44;;;1.20;100.00
72959;BME280;60008;50.826;6.896;2023-01-25T00:23:33;103036.97;;;1.33;100.00
72959;BME280;60008;50.826;6.896;2023-01-25T00:26:18;103040.47;;;1.32;100.00
72959;BME280;60008;50.826;6.896;2023-01-25T00:29:03;103039.53;;;1.34;100.00
72959;BME280;60008;50.826;6.896;2023-01-25T00:31:53;103025.66;;;1.32;100.00
72959;BME280;60008;50.826;6.896;2023-01-25T00:34:47;103024.88;;;1.29;100.00
72959;BME280;60008;50.826;6.896;2023-01-25T00:37:38;103028.81;;;1.43;100.00
72959;BME280;60008;50.826;6.896;2023-01-25T00:40:23;103028.28;;;1.32;100.00
72959;BME280;60008;50.826;6.896;2023-01-25T00:43:09;103028.53;;;1.23;100.00
72959;BME280;60008;50.826;6.896;2023-01-25T00:45:59;103020.59;;;1.26;100.00
72959;BME280;60008;50.826;6.896;2023-01-25T00:48:45;103019.81;;;1.24;100.00
72959;BME280;60008;50.826;6.896;2023-01-25T00:51:30;103011.66;;;1.05;100.00
72959;BME280;60008;50.826;6.896;2023-01-25T00:54:16;103008.75;;;1.14;100.00
72959;BME280;60008;50.826;6.896;2023-01-25T00:57:02;103006.91;;;1.18;100.00
72959;BME280;60008;50.826;6.896;2023-01-25T00:59:47;103010.06;;;1.29;100.00
72959;BME280;60008;50.826;6.896;2023-01-25T01:02:32;103001.03;;;1.41;100.00
72959;BME280;60008;50.826;6.896;2023-01-25T01:05:17;103000.00;;;1.45;100.00
72959;BME280;60008;50.826;6.896;2023-01-25T01:08:02;102995.56;;;1.48;100.00
72959;BME280;60008;50.826;6.896;2023-01-25T01:10:47;102992.47;;;1.36;100.00
72959;BME280;60008;50.826;6.896;2023-01-25T01:13:32;102997.63;;;1.37;100.00
72959;BME280;60008;50.826;6.896;2023-01-25T01:16:17;102995.44;;;1.24;100.00
72959;BME280;60008;50.826;6.896;2023-01-25T01:19:02;102990.22;;;1.24;100.00
72959;BME280;60008;50.826;6.896;2023-01-25T01:21:48;102996.63;;;1.13;100.00
72959;BME280;60008;50.826;6.896;2023-01-25T01:24:33;102998.13;;;1.20;100.00
72959;BME280;60008;50.826;6.896;2023-01-25T01:27:17;102991.06;;;1.24;100.00
72959;BME280;60008;50.826;6.896;2023-01-25T01:30:03;102995.19;;;1.33;100.00
72959;BME280;60008;50.826;6.896;2023-01-25T01:32:50;103002.00;;;1.37;100.00
72959;BME280;60008;50.826;6.896;2023-01-25T01:35:35;102998.91;;;1.24;100.00
72959;BME280;60008;50.826;6.896;2023-01-25T01:38:20;103003.34;;;1.22;100.00
72959;BME280;60008;50.826;6.896;2023-01-25T01:41:05;102996.97;;;1.31;100.00
72959;BME280;60008;50.826;6.896;2023-01-25T01:43:51;103000.25;;;1.37;100.00
72959;BME280;60008;50.826;6.896;2023-01-25T01:46:40;102998.53;;;1.36;100.00
72959;BME280;60008;50.826;6.896;2023-01-25T01:49:30;103002.88;;;1.37;100.00
72959;BME280;60008;50.826;6.896;2023-01-25T01:52:17;103000.34;;;1.34;100.00
72959;BME280;60008;50.826;6.896;2023-01-25T01:55:12;103002.16;;;1.32;100.00
72959;BME280;60008;50.826;6.896;2023-01-25T01:57:58;103003.59;;;1.13;100.00
72959;BME280;60008;50.826;6.896;2023-01-25T02:00:43;103000.44;;;1.31;100.00
72959;BME280;60008;50.826;6.896;2023-01-25T02:03:28;103001.44;;;1.27;100.00
72959;BME280;60008;50.826;6.896;2023-01-25T02:06:21;102997.72;;;1.34;100.00
72959;BME280;60008;50.826;6.896;2023-01-25T02:09:09;102991.00;;;1.27;100.00
72959;BME280;60008;50.826;6.896;2023-01-25T02:11:55;102988.16;;;1.35;100.00
72959;BME280;60008;50.826;6.896;2023-01-25T02:14:47;102991.06;;;1.24;100.00
72959;BME280;60008;50.826;6.896;2023-01-25T02:17:35;102996.44;;;1.19;100.00
72959;BME280;60008;50.826;6.896;2023-01-25T02:20:39;102995.28;;;1.28;100.00
72959;BME280;60008;50.826;6.896;2023-01-25T02:23:47;102990.94;;;1.29;100.00
72959;BME280;60008;50.826;6.896;2023-01-25T02:26:35;102983.78;;;1.35;100.00
72959;BME280;60008;50.826;6.896;2023-01-25T02:29:21;102986.41;;;1.34;100.00
72959;BME280;60008;50.826;6.896;2023-01-25T02:32:07;102988.06;;;1.38;100.00
72959;BME280;60008;50.826;6.896;2023-01-25T02:34:52;102983.72;;;1.37;100.00
72959;BME280;60008;50.826;6.896;2023-01-25T02:37:37;102984.94;;;1.25;100.00
72959;BME280;60008;50.826;6.896;2023-01-25T02:40:22;102975.31;;;1.27;100.00
72959;BME280;60008;50.826;6.896;2023-01-25T02:43:07;102977.09;;;1.25;100.00
72959;BME280;60008;50.826;6.896;2023-01-25T02:45:58;102973.34;;;1.34;100.00
72959;BME280;60008;50.826;6.896;2023-01-25T02:48:44;102975.94;;;1.35;100.00
72959;BME280;60008;50.826;6.896;2023-01-25T02:51:31;102973.50;;;1.29;100.00
72959;BME280;60008;50.826;6.896;2023-01-25T02:54:18;102975.50;;;1.21;100.00
72959;BME280;60008;50.826;6.896;2023-01-25T02:57:03;102973.88;;;1.17;100.00
72959;BME280;60008;50.826;6.896;2023-01-25T02:59:48;102973.22;;;1.10;100.00
72959;BME280;60008;50.826;6.896;2023-01-25T03:02:32;102967.03;;;1.13;100.00
72959;BME280;60008;50.826;6.896;2023-01-25T03:05:18;102976.72;;;1.09;100.00
72959;BME280;60008;50.826;6.896;2023-01-25T03:08:03;102978.34;;;1.13;100.00
72959;BME280;60008;50.826;6.896;2023-01-25T03:10:48;102977.34;;;1.17;100.00
72959;BME280;60008;50.826;6.896;2023-01-25T03:13:34;102967.91;;;1.13;100.00
72959;BME280;60008;50.826;6.896;2023-01-25T03:16:19;102971.88;;;0.96;100.00
72959;BME280;60008;50.826;6.896;2023-01-25T03:19:04;102980.34;;;1.04;100.00
72959;BME280;60008;50.826;6.896;2023-01-25T03:21:49;102975.81;;;1.10;100.00
72959;BME280;60008;50.826;6.896;2023-01-25T03:24:34;102965.47;;;1.07;100.00
72959;BME280;60008;50.826;6.896;2023-01-25T03:27:19;102968.00;;;1.09;100.00
72959;BME280;60008;50.826;6.896;2023-01-25T03:30:05;102970.81;;;1.03;100.00
72959;BME280;60008;50.826;6.896;2023-01-25T03:32:51;102970.59;;;1.10;100.00
72959;BME280;60008;50.826;6.896;2023-01-25T03:35:36;102976.63;;;1.12;100.00
72959;BME280;60008;50.826;6.896;2023-01-25T03:38:21;102982.53;;;1.19;100.00
72959;BME280;60008;50.826;6.896;2023-01-25T03:41:07;102969.66;;;1.13;100.00
72959;BME280;60008;50.826;6.896;2023-01-25T03:43:53;102972.19;;;1.16;100.00
72959;BME280;60008;50.826;6.896;2023-01-25T03:46:39;102965.19;;;1.16;100.00
72959;BME280;60008;50.826;6.896;2023-01-25T03:49:24;102969.25;;;1.25;100.00
72959;BME280;60008;50.826;6.896;2023-01-25T03:52:09;102962.44;;;1.21;100.00
72959;BME280;60008;50.826;6.896;2023-01-25T03:54:54;102956.06;;;1.02;100.00
72959;BME280;60008;50.826;6.896;2023-01-25T03:57:39;102960.06;;;1.13;100.00
72959;BME280;60008;50.826;6.896;2023-01-25T04:00:24;102957.69;;;1.06;100.00
72959;BME280;60008;50.826;6.896;2023-01-25T04:03:09;102961.91;;;1.10;100.00
72959;BME280;60008;50.826;6.896;2023-01-25T04:05:55;102956.84;;;1.04;100.00
72959;BME280;60008;50.826;6.896;2023-01-25T04:08:40;102963.97;;;0.99;100.00
72959;BME280;60008;50.826;6.896;2023-01-25T04:11:25;102957.16;;;0.93;100.00
72959;BME280;60008;50.826;6.896;2023-01-25T04:14:10;102960.31;;;1.04;100.00
72959;BME280;60008;50.826;6.896;2023-01-25T04:16:55;102952.47;;;1.06;100.00
72959;BME280;60008;50.826;6.896;2023-01-25T04:19:40;102942.69;;;1.12;100.00
72959;BME280;60008;50.826;6.896;2023-01-25T04:22:25;102935.50;;;0.91;100.00
72959;BME280;60008;50.826;6.896;2023-01-25T04:25:10;102930.13;;;0.96;100.00
72959;BME280;60008;50.826;6.896;2023-01-25T04:27:55;102933.03;;;0.87;100.00
72959;BME280;60008;50.826;6.896;2023-01-25T04:30:40;102925.84;;;0.93;100.00
72959;BME280;60008;50.826;6.896;2023-01-25T04:33:25;102927.09;;;1.09;100.00
72959;BME280;60008;50.826;6.896;2023-01-25T04:36:10;102923.69;;;1.07;100.00
72959;BME280;60008;50.826;6.896;2023-01-25T04:38:55;102915.38;;;0.95;100.00
72959;BME280;60008;50.826;6.896;2023-01-25T04:41:40;102919.53;;;0.71;100.00
72959;BME280;60008;50.826;6.896;2023-01-25T04:44:28;102914.16;;;0.77;100.00
72959;BME280;60008;50.826;6.896;2023-01-25T04:47:13;102913.13;;;0.83;100.00
72959;BME280;60008;50.826;6.896;2023-01-25T04:49:58;102914.25;;;0.74;100.00
72959;BME280;60008;50.826;6.896;2023-01-25T04:52:43;102907.66;;;0.90;100.00
72959;BME280;60008;50.826;6.896;2023-01-25T04:55:28;102909.47;;;0.88;100.00
72959;BME280;60008;50.826;6.896;2023-01-25T04:58:15;102908.84;;;0.80;100.00
72959;BME280;60008;50.826;6.896;2023-01-25T05:01:01;102913.81;;;0.89;100.00
72959;BME280;60008;50.826;6.896;2023-01-25T05:03:46;102914.31;;;0.71;100.00
72959;BME280;60008;50.826;6.896;2023-01-25T05:06:31;102907.13;;;0.79;100.00
72959;BME280;60008;50.826;6.896;2023-01-25T05:09:16;102905.25;;;0.84;100.00
72959;BME280;60008;50.826;6.896;2023-01-25T05:12:01;102904.88;;;0.96;100.00
72959;BME280;60008;50.826;6.896;2023-01-25T05:14:46;102908.63;;;0.88;100.00
72959;BME280;60008;50.826;6.896;2023-01-25T05:17:31;102900.06;;;0.83;100.00
72959;BME280;60008;50.826;6.896;2023-01-25T05:20:20;102896.59;;;0.82;100.00
72959;BME280;60008;50.826;6.896;2023-01-25T05:23:04;102899.22;;;0.82;100.00
72959;BME280;60008;50.826;6.896;2023-01-25T05:25:49;102895.75;;;0.82;100.00
72959;BME280;60008;50.826;6.896;2023-01-25T05:28:53;102895.31;;;0.95;100.00
72959;BME280;60008;50.826;6.896;2023-01-25T05:31:38;102887.56;;;0.94;100.00
72959;BME280;60008;50.826;6.896;2023-01-25T05:34:23;102885.75;;;0.67;100.00
72959;BME280;60008;50.826;6.896;2023-01-25T05:37:11;102890.84;;;0.71;100.00
72959;BME280;60008;50.826;6.896;2023-01-25T05:39:57;102884.09;;;0.64;100.00
72959;BME280;60008;50.826;6.896;2023-01-25T05:42:42;102890.09;;;0.68;100.00
72959;BME280;60008;50.826;6.896;2023-01-25T05:45:27;102881.88;;;0.80;100.00
72959;BME280;60008;50.826;6.896;2023-01-25T05:48:13;102880.69;;;0.91;100.00
72959;BME280;60008;50.826;6.896;2023-01-25T05:50:58;102881.97;;;0.77;100.00
72959;BME280;60008;50.826;6.896;2023-01-25T05:53:43;102875.53;;;0.88;100.00
72959;BME280;60008;50.826;6.896;2023-01-25T05:56:28;102879.88;;;0.89;100.00
72959;BME280;60008;50.826;6.896;2023-01-25T05:59:12;102873.41;;;0.73;100.00
72959;BME280;60008;50.826;6.896;2023-01-25T06:01:57;102873.19;;;0.81;100.00
72959;BME280;60008;50.826;6.896;2023-01-25T06:04:42;102872.88;;;0.90;100.00
72959;BME280;60008;50.826;6.896;2023-01-25T06:07:27;102870.94;;;0.96;100.00
72959;BME280;60008;50.826;6.896;2023-01-25T06:10:12;102868.19;;;1.01;100.00
72959;BME280;60008;50.826;6.896;2023-01-25T06:12:58;102867.06;;;1.09;100.00
72959;BME280;60008;50.826;6.896;2023-01-25T06:15:56;102877.88;;;0.97;100.00
72959;BME280;60008;50.826;6.896;2023-01-25T06:18:41;102877.03;;;0.97;100.00
72959;BME280;60008;50.826;6.896;2023-01-25T06:21:27;102875.19;;;1.00;100.00
72959;BME280;60008;50.826;6.896;2023-01-25T06:24:11;102868.09;;;1.04;100.00
72959;BME280;60008;50.826;6.896;2023-01-25T06:26:56;102866.00;;;0.87;100.00
72959;BME280;60008;50.826;6.896;2023-01-25T06:29:41;102862.13;;;0.71;100.00
72959;BME280;60008;50.826;6.896;2023-01-25T06:32:31;102862.03;;;0.76;100.00
72959;BME280;60008;50.826;6.896;2023-01-25T06:35:16;102860.13;;;0.81;100.00
72959;BME280;60008;50.826;6.896;2023-01-25T06:38:01;102856.50;;;0.85;100.00
72959;BME280;60008;50.826;6.896;2023-01-25T06:40:46;102861.00;;;0.81;100.00
72959;BME280;60008;50.826;6.896;2023-01-25T06:43:32;102855.66;;;0.55;100.00
72959;BME280;60008;50.826;6.896;2023-01-25T06:46:18;102860.63;;;0.64;100.00
72959;BME280;60008;50.826;6.896;2023-01-25T06:49:04;102861.41;;;0.66;100.00
72959;BME280;60008;50.826;6.896;2023-01-25T06:51:49;102865.69;;;0.69;100.00
72959;BME280;60008;50.826;6.896;2023-01-25T06:54:33;102867.31;;;0.73;100.00
72959;BME280;60008;50.826;6.896;2023-01-25T06:57:18;102867.31;;;0.73;100.00
72959;BME280;60008;50.826;6.896;2023-01-25T07:00:04;102865.16;;;0.87;100.00
72959;BME280;60008;50.826;6.896;2023-01-25T07:02:49;102861.97;;;0.77;100.00
72959;BME280;60008;50.826;6.896;2023-01-25T07:05:34;102861.66;;;0.58;100.00
72959;BME280;60008;50.826;6.896;2023-01-25T07:08:21;102864.41;;;0.82;100.00
72959;BME280;60008;50.826;6.896;2023-01-25T07:11:08;102871.03;;;0.93;100.00
72959;BME280;60008;50.826;6.896;2023-01-25T07:13:56;102874.50;;;0.94;100.00
72959;BME280;60008;50.826;6.896;2023-01-25T07:16:41;102879.78;;;0.92;100.00
72959;BME280;60008;50.826;6.896;2023-01-25T07:19:26;102875.91;;;0.76;100.00
72959;BME280;60008;50.826;6.896;2023-01-25T07:22:11;102867.69;;;0.60;100.00
72959;BME280;60008;50.826;6.896;2023-01-25T07:24:56;102873.66;;;0.64;100.00
72959;BME280;60008;50.826;6.896;2023-01-25T07:27:42;102870.06;;;0.68;100.00
72959;BME280;60008;50.826;6.896;2023-01-25T07:30:27;102873.53;;;0.69;100.00
72959;BME280;60008;50.826;6.896;2023-01-25T07:33:12;102874.91;;;0.80;100.00
72959;BME280;60008;50.826;6.896;2023-01-25T07:36:02;102883.81;;;0.44;100.00
72959;BME280;60008;50.826;6.896;2023-01-25T07:38:48;102882.03;;;0.46;100.00
72959;BME280;60008;50.826;6.896;2023-01-25T07:41:33;102883.00;;;0.42;100.00
72959;BME280;60008;50.826;6.896;2023-01-25T07:44:18;102881.84;;;0.52;100.00
72959;BME280;60008;50.826;6.896;2023-01-25T07:47:03;102874.56;;;0.63;100.00
72959;BME280;60008;50.826;6.896;2023-01-25T07:49:48;102870.91;;;0.69;100.00
72959;BME280;60008;50.826;6.896;2023-01-25T07:52:32;102874.88;;;0.82;100.00
72959;BME280;60008;50.826;6.896;2023-01-25T07:55:17;102878.00;;;0.65;100.00
72959;BME280;60008;50.826;6.896;2023-01-25T07:58:02;102867.56;;;0.65;100.00
72959;BME280;60008;50.826;6.896;2023-01-25T08:00:47;102876.91;;;0.72;100.00
72959;BME280;60008;50.826;6.896;2023-01-25T08:03:32;102873.97;;;0.83;100.00
72959;BME280;60008;50.826;6.896;2023-01-25T08:06:22;102866.06;;;0.56;100.00
72959;BME280;60008;50.826;6.896;2023-01-25T08:09:13;102874.38;;;0.69;100.00
72959;BME280;60008;50.826;6.896;2023-01-25T08:12:01;102871.06;;;0.64;100.00
72959;BME280;60008;50.826;6.896;2023-01-25T08:14:46;102876.53;;;0.55;100.00
72959;BME280;60008;50.826;6.896;2023-01-25T08:17:33;102864.34;;;0.55;100.00
72959;BME280;60008;50.826;6.896;2023-01-25T08:20:18;102867.44;;;0.68;100.00
72959;BME280;60008;50.826;6.896;2023-01-25T08:23:03;102874.03;;;0.81;100.00
72959;BME280;60008;50.826;6.896;2023-01-25T08:25:48;102864.94;;;0.94;100.00
72959;BME280;60008;50.826;6.896;2023-01-25T08:28:32;102874.84;;;0.83;100.00
72959;BME280;60008;50.826;6.896;2023-01-25T08:31:19;102864.63;;;0.76;100.00
72959;BME280;60008;50.826;6.896;2023-01-25T08:34:05;102865.44;;;0.78;100.00
72959;BME280;60008;50.826;6.896;2023-01-25T08:36:51;102863.16;;;0.66;100.00
72959;BME280;60008;50.826;6.896;2023-01-25T08:39:41;102856.81;;;0.76;100.00
72959;BME280;60008;50.826;6.896;2023-01-25T08:42:25;102861.31;;;0.71;100.00
72959;BME280;60008;50.826;6.896;2023-01-25T08:45:10;102851.25;;;0.86;100.00
72959;BME280;60008;50.826;6.896;2023-01-25T08:47:55;102846.50;;;0.99;100.00
72959;BME280;60008;50.826;6.896;2023-01-25T08:50:46;102843.75;;;0.76;100.00
72959;BME280;60008;50.826;6.896;2023-01-25T08:53:32;102846.31;;;0.77;100.00
72959;BME280;60008;50.826;6.896;2023-01-25T08:56:17;102851.53;;;0.77;100.00
72959;BME280;60008;50.826;6.896;2023-01-25T08:59:02;102847.97;;;0.80;100.00
72959;BME280;60008;50.826;6.896;2023-01-25T09:01:47;102846.75;;;0.91;100.00
72959;BME280;60008;50.826;6.896;2023-01-25T09:04:33;102852.56;;;0.72;100.00
72959;BME280;60008;50.826;6.896;2023-01-25T09:07:17;102845.13;;;0.87;100.00
72959;BME280;60008;50.826;6.896;2023-01-25T09:10:06;102849.44;;;0.88;100.00
72959;BME280;60008;50.826;6.896;2023-01-25T09:12:53;102848.91;;;0.77;100.00
72959;BME280;60008;50.826;6.896;2023-01-25T09:15:37;102837.13;;;0.64;100.00
72959;BME280;60008;50.826;6.896;2023-01-25T09:18:22;102842.19;;;0.70;100.00
72959;BME280;60008;50.826;6.896;2023-01-25T09:21:08;102852.03;;;0.60;100.00
72959;BME280;60008;50.826;6.896;2023-01-25T09:23:54;102842.44;;;0.61;100.00
72959;BME280;60008;50.826;6.896;2023-01-25T09:26:54;102833.81;;;0.59;100.00
72959;BME280;60008;50.826;6.896;2023-01-25T09:29:44;102837.06;;;0.67;100.00
72959;BME280;60008;50.826;6.896;2023-01-25T09:32:48;102835.34;;;0.66;100.00
72959;BME280;60008;50.826;6.896;2023-01-25T09:35:33;102828.59;;;0.59;100.00
72959;BME280;60008;50.826;6.896;2023-01-25T09:38:20;102830.75;;;0.74;100.00
72959;BME280;60008;50.826;6.896;2023-01-25T09:56:19;102818.47;;;0.78;100.00
72959;BME280;60008;50.826;6.896;2023-01-25T09:59:12;102813.16;;;0.81;100.00
72959;BME280;60008;50.826;6.896;2023-01-25T10:02:03;102811.50;;;0.78;100.00
72959;BME280;60008;50.826;6.896;2023-01-25T10:04:51;102805.50;;;0.75;100.00
72959;BME280;60008;50.826;6.896;2023-01-25T10:07:54;102805.94;;;0.89;100.00
72959;BME280;60008;50.826;6.896;2023-01-25T10:10:43;102796.72;;;1.05;100.00
72959;BME280;60008;50.826;6.896;2023-01-25T10:13:28;102794.75;;;1.11;100.00
72959;BME280;60008;50.826;6.896;2023-01-25T10:16:26;102783.16;;;0.94;100.00
72959;BME280;60008;50.826;6.896;2023-01-25T10:22:14;102788.09;;;1.03;100.00
72959;BME280;60008;50.826;6.896;2023-01-25T10:25:14;102788.72;;;1.09;100.00
72959;BME280;60008;50.826;6.896;2023-01-25T10:28:17;102781.94;;;1.04;100.00
72959;BME280;60008;50.826;6.896;2023-01-25T10:31:28;102785.06;;;1.15;100.00
72959;BME280;60008;50.826;6.896;2023-01-25T10:34:23;102773.66;;;1.17;100.00
72959;BME280;60008;50.826;6.896;2023-01-25T10:37:13;102766.00;;;1.13;100.00
72959;BME280;60008;50.826;6.896;2023-01-25T10:40:05;102758.16;;;1.13;100.00
72959;BME280;60008;50.826;6.896;2023-01-25T10:43:14;102752.75;;;1.19;100.00
72959;BME280;60008;50.826;6.896;2023-01-25T10:46:01;102746.31;;;1.03;100.00
72959;BME280;60008;50.826;6.896;2023-01-25T10:48:46;102740.84;;;1.10;100.00
72959;BME280;60008;50.826;6.896;2023-01-25T10:51:32;102744.50;;;1.05;100.00
72959;BME280;60008;50.826;6.896;2023-01-25T10:54:21;102746.91;;;1.11;100.00
72959;BME280;60008;50.826;6.896;2023-01-25T10:57:08;102738.81;;;1.18;100.00
72959;BME280;60008;50.826;6.896;2023-01-25T10:59:56;102741.13;;;0.75;100.00
72959;BME280;60008;50.826;6.896;2023-01-25T11:02:45;102738.53;;;0.75;100.00
72959;BME280;60008;50.826;6.896;2023-01-25T11:05:33;102739.13;;;0.83;100.00
72959;BME280;60008;50.826;6.896;2023-01-25T11:08:32;102730.94;;;0.94;100.00
72959;BME280;60008;50.826;6.896;2023-01-25T11:11:36;102729.31;;;0.90;100.00
72959;BME280;60008;50.826;6.896;2023-01-25T11:14:26;102725.22;;;0.83;100.00
72959;BME280;60008;50.826;6.896;2023-01-25T11:17:27;102733.66;;;0.91;100.00
72959;BME280;60008;50.826;6.896;2023-01-25T11:20:19;102730.66;;;1.03;100.00
72959;BME280;60008;50.826;6.896;2023-01-25T11:23:20;102712.97;;;1.11;100.00
72959;BME280;60008;50.826;6.896;2023-01-25T11:26:15;102716.81;;;1.26;100.00
72959;BME280;60008;50.826;6.896;2023-01-25T11:29:18;102715.06;;;1.26;100.00
72959;BME280;60008;50.826;6.896;2023-01-25T11:32:14;102708.47;;;1.14;100.00
72959;BME280;60008;50.826;6.896;2023-01-25T11:35:00;102708.97;;;1.26;100.00
72959;BME280;60008;50.826;6.896;2023-01-25T11:37:51;102697.75;;;1.24;100.00
72959;BME280;60008;50.826;6.896;2023-01-25T11:41:10;102699.44;;;1.25;100.00
72959;BME280;60008;50.826;6.896;2023-01-25T11:47:07;102675.13;;;1.23;100.00
72959;BME280;60008;50.826;6.896;2023-01-25T11:50:23;102662.72;;;1.29;100.00
72959;BME280;60008;50.826;6.896;2023-01-25T11:53:24;102654.72;;;1.34;100.00
72959;BME280;60008;50.826;6.896;2023-01-25T11:56:25;102641.56;;;1.37;100.00
72959;BME280;60008;50.826;6.896;2023-01-25T12:02:36;102636.78;;;1.25;100.00
72959;BME280;60008;50.826;6.896;2023-01-25T12:05:54;102626.16;;;1.29;100.00
72959;BME280;60008;50.826;6.896;2023-01-25T12:21:09;102594.31;;;1.19;100.00
72959;BME280;60008;50.826;6.896;2023-01-25T12:24:22;102587.28;;;1.22;100.00
72959;BME280;60008;50.826;6.896;2023-01-25T12:27:28;102575.41;;;1.13;100.00
72959;BME280;60008;50.826;6.896;2023-01-25T12:30:35;102578.88;;;1.13;100.00
72959;BME280;60008;50.826;6.896;2023-01-25T12:33:39;102566.41;;;1.20;100.00
72959;BME280;60008;50.826;6.896;2023-01-25T12:36:45;102564.19;;;1.09;100.00
72959;BME280;60008;50.826;6.896;2023-01-25T12:39:36;102545.03;;;1.10;100.00
72959;BME280;60008;50.826;6.896;2023-01-25T12:42:30;102539.63;;;0.92;100.00
72959;BME280;60008;50.826;6.896;2023-01-25T12:45:23;102536.09;;;0.68;100.00
72959;BME280;60008;50.826;6.896;2023-01-25T12:48:19;102534.41;;;0.92;100.00
72959;BME280;60008;50.826;6.896;2023-01-25T12:51:07;102523.47;;;1.05;100.00
72959;BME280;60008;50.826;6.896;2023-01-25T12:53:53;102524.25;;;0.84;100.00
72959;BME280;60008;50.826;6.896;2023-01-25T12:56:45;102521.25;;;0.95;100.00
72959;BME280;60008;50.826;6.896;2023-01-25T12:59:45;102513.13;;;1.02;100.00
72959;BME280;60008;50.826;6.896;2023-01-25T13:03:05;102504.72;;;0.94;100.00
72959;BME280;60008;50.826;6.896;2023-01-25T13:06:08;102507.00;;;1.03;100.00
72959;BME280;60008;50.826;6.896;2023-01-25T13:09:15;102493.03;;;1.04;100.00
72959;BME280;60008;50.826;6.896;2023-01-25T13:12:09;102493.91;;;1.05;100.00
72959;BME280;60008;50.826;6.896;2023-01-25T13:14:55;102487.50;;;1.13;100.00
72959;BME280;60008;50.826;6.896;2023-01-25T13:17:40;102478.41;;;1.00;100.00
72959;BME280;60008;50.826;6.896;2023-01-25T13:23:33;102460.56;;;1.11;100.00
72959;BME280;60008;50.826;6.896;2023-01-25T13:35:45;102436.13;;;1.14;100.00
72959;BME280;60008;50.826;6.896;2023-01-25T13:38:31;102435.56;;;1.06;100.00
72959;BME280;60008;50.826;6.896;2023-01-25T13:41:17;102434.66;;;1.07;100.00
72959;BME280;60008;50.826;6.896;2023-01-25T13:44:19;102428.44;;;1.09;100.00
72959;BME280;60008;50.826;6.896;2023-01-25T13:47:11;102423.22;;;1.09;100.00
72959;BME280;60008;50.826;6.896;2023-01-25T13:50:03;102422.25;;;1.12;100.00
72959;BME280;60008;50.826;6.896;2023-01-25T13:55:53;102418.78;;;1.11;100.00
72959;BME280;60008;50.826;6.896;2023-01-25T13:58:44;102412.75;;;1.11;100.00
72959;BME280;60008;50.826;6.896;2023-01-25T14:01:33;102411.78;;;0.90;100.00
72959;BME280;60008;50.826;6.896;2023-01-25T14:04:19;102408.84;;;0.76;100.00
72959;BME280;60008;50.826;6.896;2023-01-25T14:07:04;102416.09;;;0.68;100.00
72959;BME280;60008;50.826;6.896;2023-01-25T14:09:55;102420.25;;;0.74;100.00
72959;BME280;60008;50.826;6.896;2023-01-25T14:12:41;102420.69;;;0.85;100.00
72959;BME280;60008;50.826;6.896;2023-01-25T14:15:29;102415.59;;;0.82;100.00
72959;BME280;60008;50.826;6.896;2023-01-25T14:18:16;102406.69;;;0.87;100.00
72959;BME280;60008;50.826;6.896;2023-01-25T14:24:07;102400.91;;;0.56;100.00
72959;BME280;60008;50.826;6.896;2023-01-25T14:26:52;102399.31;;;0.52;100.00
72959;BME280;60008;50.826;6.896;2023-01-25T14:29:37;102398.22;;;0.57;100.00
72959;BME280;60008;50.826;6.896;2023-01-25T14:32:27;102399.09;;;0.58;100.00
72959;BME280;60008;50.826;6.896;2023-01-25T14:35:31;102403.78;;;0.72;100.00
72959;BME280;60008;50.826;6.896;2023-01-25T14:41:20;102393.44;;;0.70;100.00
72959;BME280;60008;50.826;6.896;2023-01-25T14:44:11;102390.25;;;0.62;100.00
72959;BME280;60008;50.826;6.896;2023-01-25T14:53:22;102379.50;;;0.46;100.00
72959;BME280;60008;50.826;6.896;2023-01-25T14:56:28;102379.97;;;0.57;100.00
72959;BME280;60008;50.826;6.896;2023-01-25T14:59:37;102385.16;;;0.59;100.00
72959;BME280;60008;50.826;6.896;2023-01-25T15:05:34;102378.97;;;0.62;100.00
72959;BME280;60008;50.826;6.896;2023-01-25T15:08:38;102381.00;;;0.53;100.00
72959;BME280;60008;50.826;6.896;2023-01-25T15:11:30;102385.19;;;0.57;100.00
72959;BME280;60008;50.826;6.896;2023-01-25T15:14:46;102379.06;;;0.58;100.00
72959;BME280;60008;50.826;6.896;2023-01-25T15:20:39;102377.63;;;0.51;100.00
72959;BME280;60008;50.826;6.896;2023-01-25T15:23:25;102367.22;;;0.73;100.00
72959;BME280;60008;50.826;6.896;2023-01-25T15:26:17;102362.97;;;0.47;100.00
72959;BME280;60008;50.826;6.896;2023-01-25T15:29:15;102363.50;;;0.57;100.00
72959;BME280;60008;50.826;6.896;2023-01-25T15:32:00;102355.91;;;0.51;100.00
72959;BME280;60008;50.826;6.896;2023-01-25T15:34:45;102354.63;;;0.61;100.00
72959;BME280;60008;50.826;6.896;2023-01-25T15:37:31;102342.38;;;0.63;100.00
72959;BME280;60008;50.826;6.896;2023-01-25T15:40:16;102338.66;;;0.70;100.00
72959;BME280;60008;50.826;6.896;2023-01-25T15:43:01;102333.06;;;0.79;100.00
72959;BME280;60008;50.826;6.896;2023-01-25T15:45:48;102330.78;;;0.48;100.00
72959;BME280;60008;50.826;6.896;2023-01-25T15:48:41;102329.34;;;0.17;100.00
72959;BME280;60008;50.826;6.896;2023-01-25T15:51:27;102324.38;;;0.34;100.00
72959;BME280;60008;50.826;6.896;2023-01-25T15:54:12;102323.84;;;0.47;100.00
72959;BME280;60008;50.826;6.896;2023-01-25T15:56:57;102318.75;;;0.44;100.00